sensor_id;sensor_type;location;lat;lon;timestamp;pressure;altitude;pressure_sealevel;temperature;humidity
28167;BME280;15455;53.376;-6.262;2023-06-19T00:02:01;100365.38;;;15.67;100.00
28167;BME280;15455;53.376;-6.262;2023-06-19T00:04:46;100361.06;;;15.64;100.00
28167;BME280;15455;53.376;-6.262;2023-06-19T00:07:32;100362.03;;;15.61;100.00
28167;BME280;15455;53.376;-6.262;2023-06-19T00:10:17;100360.41;;;15.57;100.00
28167;BME280;15455;53.376;-6.262;2023-06-19T00:13:03;100361.25;;;15.58;100.00
28167;BME280;15455;53.376;-6.262;2023-06-19T00:15:48;100357.78;;;15.57;100.00
28167;BME280;15455;53.376;-6.262;2023-06-19T00:18:34;100356.03;;;15.56;100.00
28167;BME280;15455;53.376;-6.262;2023-06-19T00:21:25;100354.31;;;15.55;100.00
28167;BME280;15455;53.376;-6.262;2023-06-19T00:24:11;100350.78;;;15.56;100.00
28167;BME280;15455;53.376;-6.262;2023-06-19T00:26:56;100357.88;;;15.54;100.00
28167;BME280;15455;53.376;-6.262;2023-06-19T00:29:48;100352.59;;;15.54;100.00
28167;BME280;15455;53.376;-6.262;2023-06-19T00:32:33;100353.50;;;15.53;100.00
28167;BME280;15455;53.376;-6.262;2023-06-19T00:35:31;100351.72;;;15.54;100.00
28167;BME280;15455;53.376;-6.262;2023-06-19T00:38:17;100344.72;;;15.54;100.00
28167;BME280;15455;53.376;-6.262;2023-06-19T00:41:03;100340.34;;;15.53;100.00
28167;BME280;15455;53.376;-6.262;2023-06-19T00:43:50;100341.25;;;15.52;100.00
28167;BME280;15455;53.376;-6.262;2023-06-19T00:46:37;100333.31;;;15.54;100.00
28167;BME280;15455;53.376;-6.262;2023-06-19T00:49:25;100328.00;;;15.55;100.00
28167;BME280;15455;53.376;-6.262;2023-06-19T00:52:11;100325.38;;;15.55;100.00
28167;BME280;15455;53.376;-6.262;2023-06-19T00:54:56;100329.78;;;15.55;100.00
28167;BME280;15455;53.376;-6.262;2023-06-19T00:57:45;100323.66;;;15.54;100.00
28167;BME280;15455;53.376;-6.262;2023-06-19T01:00:30;100335.91;;;15.55;100.00
28167;BME280;15455;53.376;-6.262;2023-06-19T01:03:16;100325.38;;;15.55;100.00
28167;BME280;15455;53.376;-6.262;2023-06-19T01:06:06;100322.69;;;15.57;100.00
28167;BME280;15455;53.376;-6.262;2023-06-19T01:09:05;100323.75;;;15.51;100.00
28167;BME280;15455;53.376;-6.262;2023-06-19T01:11:55;100320.41;;;15.46;100.00
28167;BME280;15455;53.376;-6.262;2023-06-19T01:14:52;100319.75;;;15.38;100.00
28167;BME280;15455;53.376;-6.262;2023-06-19T01:17:41;100314.69;;;15.32;100.00
28167;BME280;15455;53.376;-6.262;2023-06-19T01:20:27;100312.34;;;15.22;100.00
28167;BME280;15455;53.376;-6.262;2023-06-19T01:23:14;100316.94;;;15.14;100.00
28167;BME280;15455;53.376;-6.262;2023-06-19T01:25:59;100320.69;;;15.05;100.00
28167;BME280;15455;53.376;-6.262;2023-06-19T01:28:45;100317.34;;;14.99;100.00
28167;BME280;15455;53.376;-6.262;2023-06-19T01:31:40;100314.81;;;14.96;100.00
28167;BME280;15455;53.376;-6.262;2023-06-19T01:34:29;100311.44;;;14.90;100.00
28167;BME280;15455;53.376;-6.262;2023-06-19T01:37:16;100310.72;;;14.85;100.00
28167;BME280;15455;53.376;-6.262;2023-06-19T01:40:03;100316.13;;;14.81;100.00
28167;BME280;15455;53.376;-6.262;2023-06-19T01:42:54;100315.31;;;14.77;100.00
28167;BME280;15455;53.376;-6.262;2023-06-19T01:45:40;100310.91;;;14.77;100.00
28167;BME280;15455;53.376;-6.262;2023-06-19T01:48:27;100314.44;;;14.78;100.00
28167;BME280;15455;53.376;-6.262;2023-06-19T01:51:12;100310.91;;;14.79;100.00
28167;BME280;15455;53.376;-6.262;2023-06-19T01:53:58;100303.78;;;14.83;100.00
28167;BME280;15455;53.376;-6.262;2023-06-19T01:56:43;100308.22;;;14.81;100.00
28167;BME280;15455;53.376;-6.262;2023-06-19T01:59:28;100311.75;;;14.80;100.00
28167;BME280;15455;53.376;-6.262;2023-06-19T02:02:14;100306.59;;;14.76;100.00
28167;BME280;15455;53.376;-6.262;2023-06-19T02:04:59;100314.47;;;14.76;100.00
28167;BME280;15455;53.376;-6.262;2023-06-19T02:07:47;100305.78;;;14.73;100.00
28167;BME280;15455;53.376;-6.262;2023-06-19T02:10:34;100306.75;;;14.70;100.00
28167;BME280;15455;53.376;-6.262;2023-06-19T02:13:20;100308.59;;;14.67;100.00
28167;BME280;15455;53.376;-6.262;2023-06-19T02:16:05;100304.31;;;14.63;100.00
28167;BME280;15455;53.376;-6.262;2023-06-19T02:18:51;100307.00;;;14.59;100.00
28167;BME280;15455;53.376;-6.262;2023-06-19T02:21:37;100297.47;;;14.55;100.00
28167;BME280;15455;53.376;-6.262;2023-06-19T02:24:23;100303.69;;;14.51;100.00
28167;BME280;15455;53.376;-6.262;2023-06-19T02:27:08;100297.56;;;14.52;100.00
28167;BME280;15455;53.376;-6.262;2023-06-19T02:29:54;100298.41;;;14.53;100.00
28167;BME280;15455;53.376;-6.262;2023-06-19T02:32:39;100296.66;;;14.53;100.00
28167;BME280;15455;53.376;-6.262;2023-06-19T02:35:25;100299.31;;;14.52;100.00
28167;BME280;15455;53.376;-6.262;2023-06-19T02:38:13;100298.47;;;14.50;100.00
28167;BME280;15455;53.376;-6.262;2023-06-19T02:41:00;100297.72;;;14.46;100.00
28167;BME280;15455;53.376;-6.262;2023-06-19T02:43:50;100291.63;;;14.44;100.00
28167;BME280;15455;53.376;-6.262;2023-06-19T02:46:35;100297.91;;;14.38;100.00
28167;BME280;15455;53.376;-6.262;2023-06-19T02:49:21;100296.28;;;14.34;100.00
28167;BME280;15455;53.376;-6.262;2023-06-19T02:52:07;100294.63;;;14.30;100.00
28167;BME280;15455;53.376;-6.262;2023-06-19T02:54:53;100298.19;;;14.28;100.00
28167;BME280;15455;53.376;-6.262;2023-06-19T02:57:39;100293.88;;;14.25;100.00
28167;BME280;15455;53.376;-6.262;2023-06-19T03:00:24;100286.91;;;14.22;100.00
28167;BME280;15455;53.376;-6.262;2023-06-19T03:03:11;100291.41;;;14.19;100.00
28167;BME280;15455;53.376;-6.262;2023-06-19T03:05:57;100295.06;;;14.12;100.00
28167;BME280;15455;53.376;-6.262;2023-06-19T03:08:49;100287.34;;;14.05;100.00
28167;BME280;15455;53.376;-6.262;2023-06-19T03:11:36;100290.09;;;13.99;100.00
28167;BME280;15455;53.376;-6.262;2023-06-19T03:14:21;100295.41;;;13.98;100.00
28167;BME280;15455;53.376;-6.262;2023-06-19T03:17:07;100292.84;;;13.95;100.00
28167;BME280;15455;53.376;-6.262;2023-06-19T03:19:52;100296.28;;;13.98;100.00
28167;BME280;15455;53.376;-6.262;2023-06-19T03:22:41;100296.28;;;13.98;100.00
28167;BME280;15455;53.376;-6.262;2023-06-19T03:25:30;100307.66;;;13.97;100.00
28167;BME280;15455;53.376;-6.262;2023-06-19T03:28:21;100305.06;;;13.96;100.00
28167;BME280;15455;53.376;-6.262;2023-06-19T03:31:07;100312.13;;;13.92;100.00
28167;BME280;15455;53.376;-6.262;2023-06-19T03:33:53;100313.06;;;13.91;100.00
28167;BME280;15455;53.376;-6.262;2023-06-19T03:36:40;100315.72;;;13.88;100.00
28167;BME280;15455;53.376;-6.262;2023-06-19T03:39:28;100323.59;;;13.88;100.00
28167;BME280;15455;53.376;-6.262;2023-06-19T03:42:20;100327.22;;;13.84;100.00
28167;BME280;15455;53.376;-6.262;2023-06-19T03:45:06;100316.84;;;13.78;100.00
28167;BME280;15455;53.376;-6.262;2023-06-19T03:47:53;100311.75;;;13.71;100.00
28167;BME280;15455;53.376;-6.262;2023-06-19T03:50:38;100310.88;;;13.71;100.00
28167;BME280;15455;53.376;-6.262;2023-06-19T03:53:25;100319.66;;;13.70;100.00
28167;BME280;15455;53.376;-6.262;2023-06-19T03:56:11;100315.31;;;13.67;100.00
28167;BME280;15455;53.376;-6.262;2023-06-19T03:58:57;100310.13;;;13.66;100.00
28167;BME280;15455;53.376;-6.262;2023-06-19T04:01:42;100312.00;;;13.61;100.00
28167;BME280;15455;53.376;-6.262;2023-06-19T04:04:28;100314.66;;;13.58;100.00
28167;BME280;15455;53.376;-6.262;2023-06-19T04:07:13;100312.06;;;13.56;100.00
28167;BME280;15455;53.376;-6.262;2023-06-19T04:09:59;100320.84;;;13.55;100.00
28167;BME280;15455;53.376;-6.262;2023-06-19T04:12:45;100322.66;;;13.51;100.00
28167;BME280;15455;53.376;-6.262;2023-06-19T04:15:31;100328.84;;;13.49;100.00
28167;BME280;15455;53.376;-6.262;2023-06-19T04:18:17;100331.53;;;13.46;100.00
28167;BME280;15455;53.376;-6.262;2023-06-19T04:21:03;100332.44;;;13.43;100.00
28167;BME280;15455;53.376;-6.262;2023-06-19T04:23:50;100326.38;;;13.41;100.00
28167;BME280;15455;53.376;-6.262;2023-06-19T04:26:35;100322.91;;;13.41;100.00
28167;BME280;15455;53.376;-6.262;2023-06-19T04:29:24;100322.91;;;13.41;100.00
28167;BME280;15455;53.376;-6.262;2023-06-19T04:32:10;100329.81;;;13.43;100.00
28167;BME280;15455;53.376;-6.262;2023-06-19T04:34:58;100334.19;;;13.44;100.00
28167;BME280;15455;53.376;-6.262;2023-06-19T04:37:44;100328.94;;;13.44;100.00
28167;BME280;15455;53.376;-6.262;2023-06-19T04:40:29;100332.41;;;13.46;100.00
28167;BME280;15455;53.376;-6.262;2023-06-19T04:43:15;100328.84;;;13.49;100.00
28167;BME280;15455;53.376;-6.262;2023-06-19T04:46:00;100338.38;;;13.53;100.00
28167;BME280;15455;53.376;-6.262;2023-06-19T04:48:46;100344.34;;;13.60;100.00
28167;BME280;15455;53.376;-6.262;2023-06-19T04:51:35;100352.94;;;13.68;100.00
28167;BME280;15455;53.376;-6.262;2023-06-19T04:54:21;100356.22;;;13.76;100.00
28167;BME280;15455;53.376;-6.262;2023-06-19T04:57:07;100363.06;;;13.83;100.00
28167;BME280;15455;53.376;-6.262;2023-06-19T04:59:52;100355.03;;;13.91;100.00
28167;BME280;15455;53.376;-6.262;2023-06-19T05:02:38;100351.38;;;13.98;100.00
28167;BME280;15455;53.376;-6.262;2023-06-19T05:05:23;100353.88;;;14.03;100.00
28167;BME280;15455;53.376;-6.262;2023-06-19T05:08:09;100360.72;;;14.10;100.00
28167;BME280;15455;53.376;-6.262;2023-06-19T05:10:54;100367.59;;;14.16;100.00
28167;BME280;15455;53.376;-6.262;2023-06-19T05:13:41;100357.81;;;14.21;100.00
28167;BME280;15455;53.376;-6.262;2023-06-19T05:16:26;100356.81;;;14.27;100.00
28167;BME280;15455;53.376;-6.262;2023-06-19T05:19:12;100346.16;;;14.33;100.00
28167;BME280;15455;53.376;-6.262;2023-06-19T05:21:58;100348.75;;;14.36;100.00
28167;BME280;15455;53.376;-6.262;2023-06-19T05:24:43;100343.38;;;14.40;100.00
28167;BME280;15455;53.376;-6.262;2023-06-19T05:27:29;100343.25;;;14.45;100.00
28167;BME280;15455;53.376;-6.262;2023-06-19T05:30:14;100343.16;;;14.48;100.00
28167;BME280;15455;53.376;-6.262;2023-06-19T05:33:00;100333.50;;;14.50;100.00
28167;BME280;15455;53.376;-6.262;2023-06-19T05:35:46;100340.47;;;14.51;100.00
28167;BME280;15455;53.376;-6.262;2023-06-19T05:38:37;100341.34;;;14.52;100.00
28167;BME280;15455;53.376;-6.262;2023-06-19T05:41:23;100343.00;;;14.54;100.00
28167;BME280;15455;53.376;-6.262;2023-06-19T05:44:08;100347.28;;;14.58;100.00
28167;BME280;15455;53.376;-6.262;2023-06-19T05:46:55;100344.59;;;14.63;100.00
28167;BME280;15455;53.376;-6.262;2023-06-19T05:49:40;100342.66;;;14.70;100.00
28167;BME280;15455;53.376;-6.262;2023-06-19T05:52:26;100338.97;;;14.77;100.00
28167;BME280;15455;53.376;-6.262;2023-06-19T05:55:11;100341.41;;;14.83;100.00
28167;BME280;15455;53.376;-6.262;2023-06-19T05:57:57;100336.03;;;14.89;100.00
28167;BME280;15455;53.376;-6.262;2023-06-19T06:00:42;100336.69;;;14.96;100.00
28167;BME280;15455;53.376;-6.262;2023-06-19T06:03:28;100331.34;;;15.01;100.00
28167;BME280;15455;53.376;-6.262;2023-06-19T06:06:15;100327.66;;;15.06;100.00
28167;BME280;15455;53.376;-6.262;2023-06-19T06:09:00;100321.34;;;15.12;100.00
28167;BME280;15455;53.376;-6.262;2023-06-19T06:11:46;100317.75;;;15.16;100.00
28167;BME280;15455;53.376;-6.262;2023-06-19T06:14:32;100324.59;;;15.22;100.00
28167;BME280;15455;53.376;-6.262;2023-06-19T06:17:17;100315.66;;;15.27;100.00
28167;BME280;15455;53.376;-6.262;2023-06-19T06:20:03;100324.31;;;15.33;100.00
28167;BME280;15455;53.376;-6.262;2023-06-19T06:22:58;100320.66;;;15.37;100.00
28167;BME280;15455;53.376;-6.262;2023-06-19T06:25:43;100316.13;;;15.42;100.00
28167;BME280;15455;53.376;-6.262;2023-06-19T06:28:30;100323.84;;;15.48;100.00
28167;BME280;15455;53.376;-6.262;2023-06-19T06:31:16;100314.84;;;15.55;100.00
28167;BME280;15455;53.376;-6.262;2023-06-19T06:34:02;100316.38;;;15.62;100.00
28167;BME280;15455;53.376;-6.262;2023-06-19T06:36:47;100315.19;;;15.73;100.00
28167;BME280;15455;53.376;-6.262;2023-06-19T06:39:49;100320.03;;;15.88;100.00
28167;BME280;15455;53.376;-6.262;2023-06-19T06:42:34;100321.28;;;16.05;100.00
28167;BME280;15455;53.376;-6.262;2023-06-19T06:45:20;100312.28;;;16.10;100.00
28167;BME280;15455;53.376;-6.262;2023-06-19T06:48:05;100320.13;;;16.13;100.00
28167;BME280;15455;53.376;-6.262;2023-06-19T06:50:52;100307.84;;;16.12;100.00
28167;BME280;15455;53.376;-6.262;2023-06-19T06:53:44;100312.22;;;16.13;100.00
28167;BME280;15455;53.376;-6.262;2023-06-19T06:56:30;100304.16;;;16.18;100.00
28167;BME280;15455;53.376;-6.262;2023-06-19T06:59:15;100307.50;;;16.23;100.00
28167;BME280;15455;53.376;-6.262;2023-06-19T07:02:00;100313.47;;;16.28;100.00
28167;BME280;15455;53.376;-6.262;2023-06-19T07:04:46;100310.75;;;16.31;100.00
28167;BME280;15455;53.376;-6.262;2023-06-19T07:07:31;100314.00;;;16.40;100.00
28167;BME280;15455;53.376;-6.262;2023-06-19T07:10:17;100313.56;;;16.52;100.00
28167;BME280;15455;53.376;-6.262;2023-06-19T07:13:02;100313.94;;;16.66;100.00
28167;BME280;15455;53.376;-6.262;2023-06-19T07:15:47;100312.69;;;16.78;100.00
28167;BME280;15455;53.376;-6.262;2023-06-19T07:18:33;100316.63;;;16.92;100.00
28167;BME280;15455;53.376;-6.262;2023-06-19T07:21:20;100312.91;;;16.97;100.00
28167;BME280;15455;53.376;-6.262;2023-06-19T07:24:06;100310.22;;;16.99;100.00
28167;BME280;15455;53.376;-6.262;2023-06-19T07:26:51;100313.59;;;17.02;100.00
28167;BME280;15455;53.376;-6.262;2023-06-19T07:29:37;100306.56;;;17.03;100.00
28167;BME280;15455;53.376;-6.262;2023-06-19T07:32:22;100313.38;;;17.09;100.00
28167;BME280;15455;53.376;-6.262;2023-06-19T07:35:08;100312.44;;;17.10;100.00
28167;BME280;15455;53.376;-6.262;2023-06-19T07:37:54;100322.94;;;17.11;100.00
28167;BME280;15455;53.376;-6.262;2023-06-19T07:40:40;100310.94;;;17.02;100.00
28167;BME280;15455;53.376;-6.262;2023-06-19T07:43:25;100323.22;;;17.04;100.00
28167;BME280;15455;53.376;-6.262;2023-06-19T07:46:11;100327.59;;;17.05;100.00
28167;BME280;15455;53.376;-6.262;2023-06-19T07:48:57;100318.06;;;17.00;100.00
28167;BME280;15455;53.376;-6.262;2023-06-19T07:51:42;100319.78;;;17.01;100.00
28167;BME280;15455;53.376;-6.262;2023-06-19T07:54:27;100322.44;;;17.01;100.00
28167;BME280;15455;53.376;-6.262;2023-06-19T07:57:13;100317.88;;;17.05;100.00
28167;BME280;15455;53.376;-6.262;2023-06-19T07:59:58;100318.47;;;17.13;100.00
28167;BME280;15455;53.376;-6.262;2023-06-19T08:02:43;100317.22;;;17.24;100.00
28167;BME280;15455;53.376;-6.262;2023-06-19T08:05:29;100316.75;;;17.36;100.00
28167;BME280;15455;53.376;-6.262;2023-06-19T08:08:14;100330.34;;;17.49;100.00
28167;BME280;15455;53.376;-6.262;2023-06-19T08:11:00;100320.41;;;17.56;100.00
28167;BME280;15455;53.376;-6.262;2023-06-19T08:13:45;100319.56;;;17.55;100.00
28167;BME280;15455;53.376;-6.262;2023-06-19T08:16:31;100312.31;;;17.60;100.00
28167;BME280;15455;53.376;-6.262;2023-06-19T08:19:16;100312.25;;;17.62;100.00
28167;BME280;15455;53.376;-6.262;2023-06-19T08:22:02;100314.16;;;17.58;100.00
28167;BME280;15455;53.376;-6.262;2023-06-19T08:24:48;100322.94;;;17.59;100.00
28167;BME280;15455;53.376;-6.262;2023-06-19T08:27:33;100318.97;;;17.70;100.00
28167;BME280;15455;53.376;-6.262;2023-06-19T08:30:19;100321.13;;;17.83;100.00
28167;BME280;15455;53.376;-6.262;2023-06-19T08:33:04;100314.53;;;17.95;100.00
28167;BME280;15455;53.376;-6.262;2023-06-19T08:35:49;100316.69;;;18.07;100.00
28167;BME280;15455;53.376;-6.262;2023-06-19T08:38:35;100316.09;;;18.21;100.00
28167;BME280;15455;53.376;-6.262;2023-06-19T08:41:20;100315.88;;;18.27;100.00
28167;BME280;15455;53.376;-6.262;2023-06-19T08:44:06;100320.81;;;18.35;100.00
28167;BME280;15455;53.376;-6.262;2023-06-19T08:46:51;100318.59;;;18.46;100.00
28167;BME280;15455;53.376;-6.262;2023-06-19T08:49:37;100308.81;;;18.48;100.00
28167;BME280;15455;53.376;-6.262;2023-06-19T08:52:23;100307.97;;;18.48;100.00
28167;BME280;15455;53.376;-6.262;2023-06-19T08:55:09;100311.19;;;18.54;100.00
28167;BME280;15455;53.376;-6.262;2023-06-19T08:57:55;100310.66;;;18.46;100.00
28167;BME280;15455;53.376;-6.262;2023-06-19T09:00:47;100314.63;;;18.36;100.00
28167;BME280;15455;53.376;-6.262;2023-06-19T09:03:33;100309.91;;;18.43;100.00
28167;BME280;15455;53.376;-6.262;2023-06-19T09:06:19;100306.50;;;18.40;100.00
28167;BME280;15455;53.376;-6.262;2023-06-19T09:09:05;100307.28;;;18.43;100.00
28167;BME280;15455;53.376;-6.262;2023-06-19T09:12:12;100307.00;;;18.49;100.00
28167;BME280;15455;53.376;-6.262;2023-06-19T09:15:00;100300.59;;;18.54;100.00
28167;BME280;15455;53.376;-6.262;2023-06-19T09:17:45;100305.66;;;18.61;100.00
28167;BME280;15455;53.376;-6.262;2023-06-19T09:20:38;100302.00;;;18.63;100.00
28167;BME280;15455;53.376;-6.262;2023-06-19T09:23:29;100305.03;;;18.74;100.00
28167;BME280;15455;53.376;-6.262;2023-06-19T09:26:18;100309.13;;;18.82;100.00
28167;BME280;15455;53.376;-6.262;2023-06-19T09:29:14;100306.00;;;18.94;100.00
28167;BME280;15455;53.376;-6.262;2023-06-19T09:32:16;100303.06;;;19.00;100.00
28167;BME280;15455;53.376;-6.262;2023-06-19T09:35:03;100308.56;;;18.96;100.00
28167;BME280;15455;53.376;-6.262;2023-06-19T09:37:51;100309.06;;;18.83;100.00
28167;BME280;15455;53.376;-6.262;2023-06-19T09:40:37;100313.03;;;18.73;100.00
28167;BME280;15455;53.376;-6.262;2023-06-19T09:43:24;100306.16;;;18.69;100.00
28167;BME280;15455;53.376;-6.262;2023-06-19T09:46:11;100308.03;;;18.67;100.00
28167;BME280;15455;53.376;-6.262;2023-06-19T09:48:58;100303.72;;;18.64;100.00
28167;BME280;15455;53.376;-6.262;2023-06-19T09:51:47;100297.91;;;18.77;100.00
28167;BME280;15455;53.376;-6.262;2023-06-19T09:54:32;100301.47;;;18.96;100.00
28167;BME280;15455;53.376;-6.262;2023-06-19T09:57:19;100308.59;;;19.15;100.00
28167;BME280;15455;53.376;-6.262;2023-06-19T10:00:07;100310.47;;;19.51;100.00
28167;BME280;15455;53.376;-6.262;2023-06-19T10:03:12;100302.59;;;19.68;100.00
28167;BME280;15455;53.376;-6.262;2023-06-19T10:05:59;100304.94;;;19.74;100.00
28167;BME280;15455;53.376;-6.262;2023-06-19T10:08:45;100295.53;;;19.88;100.00
28167;BME280;15455;53.376;-6.262;2023-06-19T10:11:47;100289.38;;;20.05;100.00
28167;BME280;15455;53.376;-6.262;2023-06-19T10:14:33;100287.06;;;20.16;100.00
28167;BME280;15455;53.376;-6.262;2023-06-19T10:17:18;100288.31;;;20.26;100.00
28167;BME280;15455;53.376;-6.262;2023-06-19T10:20:04;100283.31;;;20.20;100.00
28167;BME280;15455;53.376;-6.262;2023-06-19T10:23:04;100281.63;;;20.37;100.00
28167;BME280;15455;53.376;-6.262;2023-06-19T10:28:38;100283.56;;;20.51;100.00
28167;BME280;15455;53.376;-6.262;2023-06-19T10:31:25;100293.72;;;20.42;100.00
28167;BME280;15455;53.376;-6.262;2023-06-19T10:34:10;100293.31;;;20.33;100.00
28167;BME280;15455;53.376;-6.262;2023-06-19T10:36:57;100295.25;;;20.29;100.00
28167;BME280;15455;53.376;-6.262;2023-06-19T10:39:44;100294.66;;;20.41;100.00
28167;BME280;15455;53.376;-6.262;2023-06-19T10:42:30;100297.28;;;20.59;100.00
28167;BME280;15455;53.376;-6.262;2023-06-19T10:45:16;100294.25;;;20.67;100.00
28167;BME280;15455;53.376;-6.262;2023-06-19T10:48:04;100299.78;;;20.62;100.00
28167;BME280;15455;53.376;-6.262;2023-06-19T10:50:51;100292.53;;;20.48;100.00
28167;BME280;15455;53.376;-6.262;2023-06-19T10:53:36;100297.22;;;20.43;100.00
28167;BME280;15455;53.376;-6.262;2023-06-19T10:56:22;100296.06;;;20.31;100.00
28167;BME280;15455;53.376;-6.262;2023-06-19T10:59:09;100306.00;;;20.08;100.00
28167;BME280;15455;53.376;-6.262;2023-06-19T11:01:57;100296.13;;;19.93;100.00
28167;BME280;15455;53.376;-6.262;2023-06-19T11:04:42;100299.81;;;19.90;100.00
28167;BME280;15455;53.376;-6.262;2023-06-19T11:07:28;100291.97;;;20.06;100.00
28167;BME280;15455;53.376;-6.262;2023-06-19T11:10:19;100293.59;;;20.26;100.00
28167;BME280;15455;53.376;-6.262;2023-06-19T11:13:05;100283.03;;;20.44;100.00
28167;BME280;15455;53.376;-6.262;2023-06-19T11:15:50;100280.75;;;20.54;100.00
28167;BME280;15455;53.376;-6.262;2023-06-19T11:18:36;100284.78;;;20.61;100.00
28167;BME280;15455;53.376;-6.262;2023-06-19T11:21:29;100274.69;;;20.69;100.00
28167;BME280;15455;53.376;-6.262;2023-06-19T11:24:15;100278.34;;;20.67;100.00
28167;BME280;15455;53.376;-6.262;2023-06-19T11:27:02;100279.22;;;20.67;100.00
28167;BME280;15455;53.376;-6.262;2023-06-19T11:29:47;100280.88;;;20.86;100.00
28167;BME280;15455;53.376;-6.262;2023-06-19T11:32:35;100273.94;;;21.01;100.00
28167;BME280;15455;53.376;-6.262;2023-06-19T11:35:33;100270.53;;;21.30;100.00
28167;BME280;15455;53.376;-6.262;2023-06-19T11:38:25;100263.03;;;21.55;100.00
28167;BME280;15455;53.376;-6.262;2023-06-19T11:41:11;100259.16;;;21.76;100.00
28167;BME280;15455;53.376;-6.262;2023-06-19T11:44:03;100266.84;;;21.97;100.00
28167;BME280;15455;53.376;-6.262;2023-06-19T11:46:49;100262.69;;;22.23;100.00
28167;BME280;15455;53.376;-6.262;2023-06-19T11:49:35;100259.44;;;22.48;100.00
28167;BME280;15455;53.376;-6.262;2023-06-19T11:52:21;100262.44;;;22.87;100.00
28167;BME280;15455;53.376;-6.262;2023-06-19T11:55:07;100261.19;;;23.36;100.00
28167;BME280;15455;53.376;-6.262;2023-06-19T11:57:52;100253.72;;;23.83;100.00
28167;BME280;15455;53.376;-6.262;2023-06-19T12:00:38;100262.53;;;23.70;100.00
28167;BME280;15455;53.376;-6.262;2023-06-19T12:03:24;100282.69;;;23.33;100.00
28167;BME280;15455;53.376;-6.262;2023-06-19T12:06:09;100264.03;;;22.75;100.00
28167;BME280;15455;53.376;-6.262;2023-06-19T12:08:55;100268.91;;;22.38;100.00
28167;BME280;15455;53.376;-6.262;2023-06-19T12:11:41;100268.19;;;22.04;100.00
28167;BME280;15455;53.376;-6.262;2023-06-19T12:14:26;100259.94;;;21.94;100.00
28167;BME280;15455;53.376;-6.262;2023-06-19T12:17:12;100260.34;;;22.17;100.00
28167;BME280;15455;53.376;-6.262;2023-06-19T12:19:58;100261.53;;;22.86;100.00
28167;BME280;15455;53.376;-6.262;2023-06-19T12:22:44;100270.63;;;23.27;100.00
28167;BME280;15455;53.376;-6.262;2023-06-19T12:25:29;100256.88;;;23.48;100.00
28167;BME280;15455;53.376;-6.262;2023-06-19T12:28:15;100253.59;;;23.57;100.00
28167;BME280;15455;53.376;-6.262;2023-06-19T12:31:03;100259.53;;;23.89;100.00
28167;BME280;15455;53.376;-6.262;2023-06-19T12:33:50;100269.22;;;23.90;100.00
28167;BME280;15455;53.376;-6.262;2023-06-19T12:36:35;100258.75;;;23.87;100.00
28167;BME280;15455;53.376;-6.262;2023-06-19T12:39:21;100258.19;;;24.09;100.00
28167;BME280;15455;53.376;-6.262;2023-06-19T12:42:07;100258.03;;;24.38;100.00
28167;BME280;15455;53.376;-6.262;2023-06-19T12:44:53;100266.97;;;24.24;100.00
28167;BME280;15455;53.376;-6.262;2023-06-19T12:47:38;100272.13;;;24.00;100.00
28167;BME280;15455;53.376;-6.262;2023-06-19T12:50:24;100271.09;;;23.61;100.00
28167;BME280;15455;53.376;-6.262;2023-06-19T12:53:10;100258.44;;;23.23;100.00
28167;BME280;15455;53.376;-6.262;2023-06-19T12:55:57;100261.53;;;23.01;100.00
28167;BME280;15455;53.376;-6.262;2023-06-19T12:58:48;100264.69;;;22.79;100.00
28167;BME280;15455;53.376;-6.262;2023-06-19T13:01:33;100268.66;;;22.57;100.00
28167;BME280;15455;53.376;-6.262;2023-06-19T13:04:18;100267.31;;;22.50;100.00
28167;BME280;15455;53.376;-6.262;2023-06-19T13:07:04;100271.22;;;22.59;100.00
28167;BME280;15455;53.376;-6.262;2023-06-19T13:09:49;100280.00;;;22.61;100.00
28167;BME280;15455;53.376;-6.262;2023-06-19T13:12:34;100284.81;;;22.54;100.00
28167;BME280;15455;53.376;-6.262;2023-06-19T13:15:20;100284.50;;;22.44;100.00
28167;BME280;15455;53.376;-6.262;2023-06-19T13:18:05;100282.22;;;22.38;100.00
28167;BME280;15455;53.376;-6.262;2023-06-19T13:20:51;100287.94;;;22.46;100.00
28167;BME280;15455;53.376;-6.262;2023-06-19T13:23:36;100283.41;;;22.63;100.00
28167;BME280;15455;53.376;-6.262;2023-06-19T13:26:22;100285.22;;;22.77;100.00
28167;BME280;15455;53.376;-6.262;2023-06-19T13:29:07;100284.75;;;22.84;100.00
28167;BME280;15455;53.376;-6.262;2023-06-19T13:31:53;100284.34;;;22.76;100.00
28167;BME280;15455;53.376;-6.262;2023-06-19T13:34:38;100286.34;;;22.58;100.00
28167;BME280;15455;53.376;-6.262;2023-06-19T13:37:23;100290.78;;;22.43;100.00
28167;BME280;15455;53.376;-6.262;2023-06-19T13:40:09;100297.22;;;22.39;100.00
28167;BME280;15455;53.376;-6.262;2023-06-19T13:42:55;100289.06;;;22.42;100.00
28167;BME280;15455;53.376;-6.262;2023-06-19T13:45:40;100301.22;;;22.46;100.00
28167;BME280;15455;53.376;-6.262;2023-06-19T13:48:27;100298.28;;;22.51;100.00
28167;BME280;15455;53.376;-6.262;2023-06-19T13:51:12;100293.09;;;22.64;100.00
28167;BME280;15455;53.376;-6.262;2023-06-19T13:53:58;100288.53;;;22.66;100.00
28167;BME280;15455;53.376;-6.262;2023-06-19T13:56:43;100290.66;;;22.75;100.00
28167;BME280;15455;53.376;-6.262;2023-06-19T13:59:29;100288.44;;;22.82;100.00
28167;BME280;15455;53.376;-6.262;2023-06-19T14:02:14;100285.13;;;22.78;100.00
28167;BME280;15455;53.376;-6.262;2023-06-19T14:05:00;100294.75;;;22.81;100.00
28167;BME280;15455;53.376;-6.262;2023-06-19T14:07:45;100289.47;;;22.79;100.00
28167;BME280;15455;53.376;-6.262;2023-06-19T14:10:30;100297.09;;;22.71;100.00
28167;BME280;15455;53.376;-6.262;2023-06-19T14:13:16;100304.69;;;22.63;100.00